Time;durP1;ratioP1;P1;durP2;ratioP2;P2;SDS_P1;SDS_P2;PMS_P1;PMS_P2;Temp;Humidity;BMP_temperature;BMP_pressure;BME280_temperature;BME280_humidity;BME280_pressure;Samples;Min_cycle;Max_cycle;Signal;HPM_P1;HPM_P2
2021/11/12 00:12:29;;;;;;;11.02;6.38;;;9.90;99.90;;;;;;4934047;29;20031;-88
2021/11/12 00:14:54;;;;;;;12.50;5.72;;;9.90;99.90;;;;;;4932080;29;20029;-87
2021/11/12 00:17:23;;;;;;;11.05;6.00;;;9.90;99.90;;;;;;4930540;29;20040;-87
2021/11/12 00:19:50;;;;;;;10.30;6.40;;;9.90;99.90;;;;;;4921057;29;20017;-90
2021/11/12 00:22:18;;;;;;;12.20;6.78;;;9.90;99.90;;;;;;4910812;29;20016;-87
2021/11/12 00:24:44;;;;;;;13.27;6.38;;;9.90;99.90;;;;;;4927185;29;20032;-86
2021/11/12 00:27:09;;;;;;;13.10;6.80;;;9.90;99.90;;;;;;4929634;29;20048;-87
2021/11/12 00:30:24;;;;;;;10.60;6.32;;;9.90;99.90;;;;;;4931959;29;20041;-87
2021/11/12 00:40:06;;;;;;;10.18;5.78;;;9.90;99.90;;;;;;4923315;29;20011;-87
2021/11/12 00:45:04;;;;;;;8.82;5.40;;;9.90;99.90;;;;;;4923739;29;20024;-87
2021/11/12 00:55:18;;;;;;;9.60;3.75;;;9.80;99.90;;;;;;4923318;29;20009;-90
2021/11/12 00:57:44;;;;;;;13.73;5.60;;;9.70;99.90;;;;;;4906803;29;20120;-88
2021/11/12 01:00:12;;;;;;;10.55;6.32;;;9.70;99.90;;;;;;4907261;29;20016;-92
2021/11/12 01:02:39;;;;;;;11.02;4.80;;;9.70;99.90;;;;;;4923943;29;20091;-85
2021/11/12 01:05:06;;;;;;;10.10;5.40;;;9.70;99.90;;;;;;4907460;29;20033;-86
2021/11/12 01:07:31;;;;;;;8.18;4.82;;;9.70;99.90;;;;;;4923893;29;20073;-87
2021/11/12 01:09:57;;;;;;;9.88;5.38;;;9.60;99.90;;;;;;4923070;29;20004;-87
2021/11/12 01:12:24;;;;;;;7.70;4.22;;;9.70;99.90;;;;;;4922672;29;20052;-86
2021/11/12 01:14:53;;;;;;;7.30;4.72;;;9.60;99.90;;;;;;4922271;29;20017;-86
2021/11/12 01:17:18;;;;;;;7.95;4.07;;;9.60;99.90;;;;;;4921424;29;20042;-87
2021/11/12 01:19:44;;;;;;;11.10;6.20;;;9.60;99.90;;;;;;4920497;29;20021;-87
2021/11/12 01:22:11;;;;;;;9.05;4.72;;;9.60;99.90;;;;;;4923730;29;20092;-88
2021/11/12 01:24:38;;;;;;;8.68;4.40;;;9.60;99.90;;;;;;4922675;29;20017;-87
2021/11/12 01:27:05;;;;;;;8.38;4.22;;;9.60;99.90;;;;;;4906402;29;20031;-88
2021/11/12 01:29:31;;;;;;;9.13;5.03;;;9.50;99.90;;;;;;4906519;29;20031;-88
2021/11/12 01:31:59;;;;;;;6.50;2.97;;;9.60;99.90;;;;;;4922911;29;20092;-89
2021/11/12 01:34:25;;;;;;;7.57;5.50;;;9.60;99.90;;;;;;4923463;29;20035;-87
2021/11/12 01:36:50;;;;;;;5.57;3.05;;;9.60;99.90;;;;;;4924013;29;20021;-85
2021/11/12 01:39:22;;;;;;;9.90;4.75;;;9.60;99.90;;;;;;4923560;29;20076;-93
2021/11/12 01:41:51;;;;;;;7.90;4.43;;;9.60;99.90;;;;;;4923505;29;20036;-92
2021/11/12 01:44:28;;;;;;;6.70;4.20;;;9.60;99.90;;;;;;4923720;29;20005;-90
2021/11/12 01:47:13;;;;;;;3.75;2.83;;;9.60;99.90;;;;;;4923726;29;20032;-88
2021/11/12 01:52:32;;;;;;;7.57;2.40;;;9.50;99.90;;;;;;4923436;29;20036;-86
2021/11/12 01:55:05;;;;;;;8.40;4.40;;;9.50;99.90;;;;;;4923550;29;20101;-86
2021/11/12 02:00:19;;;;;;;7.47;3.92;;;9.40;99.90;;;;;;4923800;29;20068;-90
2021/11/12 02:02:45;;;;;;;10.02;5.07;;;9.40;99.90;;;;;;4907977;29;20033;-90
2021/11/12 02:05:12;;;;;;;9.93;4.97;;;9.40;99.90;;;;;;4921367;29;20020;-94
2021/11/12 02:07:38;;;;;;;9.70;5.05;;;9.30;99.90;;;;;;4908016;29;20025;-89
2021/11/12 02:10:15;;;;;;;10.43;4.63;;;9.30;99.90;;;;;;4907819;29;20009;-88
2021/11/12 02:12:49;;;;;;;9.13;4.82;;;9.30;99.90;;;;;;4924098;29;20029;-88
2021/11/12 02:15:16;;;;;;;9.95;4.60;;;9.30;99.90;;;;;;4923511;29;20028;-87
2021/11/12 02:17:46;;;;;;;5.05;3.55;;;9.30;99.90;;;;;;4907977;29;20012;-90
2021/11/12 02:20:20;;;;;;;7.15;3.88;;;9.30;99.90;;;;;;4907781;29;20028;-87
2021/11/12 02:22:52;;;;;;;8.27;4.30;;;9.30;99.90;;;;;;4923856;29;20017;-86
2021/11/12 02:25:37;;;;;;;13.00;3.75;;;9.30;99.90;;;;;;4923893;29;20016;-87
2021/11/12 02:28:08;;;;;;;6.63;4.00;;;9.30;99.90;;;;;;4922975;29;20039;-89
2021/11/12 02:30:34;;;;;;;;;;;9.30;99.90;;;;;;4923815;29;20040;-86
2021/11/12 02:33:16;;;;;;;5.13;2.65;;;9.30;99.90;;;;;;4923366;29;19911;-86
2021/11/12 02:36:12;;;;;;;7.35;4.40;;;9.30;99.90;;;;;;4922871;29;20020;-87
2021/11/12 02:38:42;;;;;;;8.25;3.88;;;9.30;99.90;;;;;;4919470;29;20057;-85
2021/11/12 02:41:08;;;;;;;9.07;3.77;;;9.30;99.90;;;;;;4923315;29;20025;-87
2021/11/12 02:43:35;;;;;;;6.00;3.92;;;9.30;99.90;;;;;;4922275;29;20284;-93
2021/11/12 02:46:03;;;;;;;6.30;3.67;;;9.30;99.90;;;;;;4923036;29;20012;-88
2021/11/12 02:48:34;;;;;;;5.75;3.80;;;9.20;99.90;;;;;;4923221;29;20072;-86
2021/11/12 02:51:00;;;;;;;7.43;4.32;;;9.30;99.90;;;;;;4923099;29;20009;-89
2021/11/12 02:53:26;;;;;;;5.88;3.55;;;9.30;99.90;;;;;;4923100;29;20020;-94
2021/11/12 02:55:52;;;;;;;8.07;3.58;;;9.30;99.90;;;;;;4922677;29;20036;-85
2021/11/12 02:58:19;;;;;;;6.32;2.88;;;9.30;99.90;;;;;;4922678;29;20024;-88
2021/11/12 03:00:46;;;;;;;9.48;3.80;;;9.30;99.90;;;;;;4922731;29;20016;-85
2021/11/12 03:03:12;;;;;;;6.00;3.33;;;9.30;99.90;;;;;;4922398;29;20016;-86
2021/11/12 03:05:38;;;;;;;7.22;4.32;;;9.30;99.90;;;;;;4906170;29;20020;-86
2021/11/12 03:08:04;;;;;;;6.90;4.20;;;9.30;99.90;;;;;;4922330;29;20055;-86
2021/11/12 03:10:33;;;;;;;8.00;4.60;;;9.30;99.90;;;;;;4905969;29;20017;-86
2021/11/12 03:12:59;;;;;;;7.43;4.15;;;9.30;99.90;;;;;;4922126;29;20065;-85
2021/11/12 03:15:25;;;;;;;9.55;4.28;;;9.30;99.90;;;;;;4921634;29;20021;-86
2021/11/12 03:17:55;;;;;;;6.32;3.95;;;9.30;99.90;;;;;;4922177;29;20080;-90
2021/11/12 03:20:23;;;;;;;10.30;4.37;;;9.30;99.90;;;;;;4921916;29;20005;-87
2021/11/12 03:22:59;;;;;;;9.55;4.03;;;9.30;99.90;;;;;;4921888;29;20016;-85
2021/11/12 03:25:37;;;;;;;8.98;4.30;;;9.30;99.90;;;;;;4905965;29;20117;-88
2021/11/12 04:03:21;;;;;;;6.93;3.97;;;9.30;99.90;;;;;;4921545;29;20045;-88
2021/11/12 04:19:44;;;;;;;7.90;4.10;;;9.30;99.90;;;;;;4921518;29;20043;-91
2021/11/12 05:09:38;;;;;;;13.70;4.97;;;9.20;99.90;;;;;;4925012;29;20086;-90
2021/11/12 05:46:36;;;;;;;14.73;6.35;;;9.20;99.90;;;;;;4923968;29;20040;-87
2021/11/12 05:57:15;;;;;;;10.90;5.50;;;9.20;99.90;;;;;;4923718;29;20031;-89
2021/11/12 05:59:41;;;;;;;5.05;3.42;;;9.20;99.90;;;;;;4923549;29;20017;-91
2021/11/12 06:02:07;;;;;;;11.35;5.43;;;9.20;99.90;;;;;;4923601;29;20044;-86
2021/11/12 06:04:33;;;;;;;9.75;4.50;;;9.30;99.90;;;;;;4923471;29;20012;-86
2021/11/12 06:07:00;;;;;;;8.10;4.13;;;9.30;99.90;;;;;;4923234;29;20020;-89
2021/11/12 06:09:26;;;;;;;8.30;3.60;;;9.30;99.90;;;;;;4906782;29;20065;-88
2021/11/12 06:11:54;;;;;;;7.45;4.32;;;9.30;99.90;;;;;;4922405;29;20028;-90
2021/11/12 06:14:24;;;;;;;6.22;3.30;;;9.30;99.90;;;;;;4923082;29;20033;-90
2021/11/12 06:16:51;;;;;;;8.23;3.60;;;9.30;99.90;;;;;;4906606;29;20017;-91
2021/11/12 06:19:18;;;;;;;7.30;3.60;;;9.30;99.90;;;;;;4904117;29;20017;-95
2021/11/12 06:21:44;;;;;;;4.43;3.45;;;9.30;99.90;;;;;;4906396;29;20024;-89
2021/11/12 06:24:10;;;;;;;4.57;3.35;;;9.30;99.90;;;;;;4905525;29;20129;-92
2021/11/12 06:26:37;;;;;;;6.10;3.10;;;9.40;99.90;;;;;;4921812;29;20037;-92
2021/11/12 06:29:03;;;;;;;3.38;2.78;;;9.30;99.90;;;;;;4907027;29;20028;-90
2021/11/12 06:31:28;;;;;;;4.30;2.67;;;9.40;99.90;;;;;;4922068;29;20035;-92
2021/11/12 06:33:54;;;;;;;9.07;3.10;;;9.30;99.90;;;;;;4922594;29;20053;-86
2021/11/12 06:36:22;;;;;;;2.78;1.52;;;9.40;99.90;;;;;;4906393;29;20037;-88
2021/11/12 06:38:48;;;;;;;4.85;3.53;;;9.40;99.90;;;;;;4921239;29;20012;-89
2021/11/12 06:41:16;;;;;;;7.10;3.63;;;9.50;99.90;;;;;;4922055;29;20016;-91
2021/11/12 06:44:22;;;;;;;5.60;3.08;;;9.50;99.90;;;;;;4905856;29;20013;-87
2021/11/12 06:49:38;;;;;;;6.50;4.00;;;9.50;99.90;;;;;;4920557;29;20085;-87
2021/11/12 06:52:05;;;;;;;9.73;3.63;;;9.60;99.90;;;;;;4902282;29;20024;-88
2021/11/12 06:54:32;;;;;;;7.70;3.30;;;9.60;99.90;;;;;;4921535;29;20065;-88
2021/11/12 06:57:06;;;;;;;7.25;4.00;;;9.60;99.90;;;;;;4905219;29;20051;-89
2021/11/12 06:59:32;;;;;;;5.60;3.53;;;9.70;99.90;;;;;;4905197;29;20024;-88
2021/11/12 07:01:58;;;;;;;8.30;4.50;;;9.70;99.90;;;;;;4920464;29;20041;-91
2021/11/12 07:04:23;;;;;;;5.72;3.53;;;9.70;99.90;;;;;;4920256;29;20029;-92
2021/11/12 07:06:49;;;;;;;7.93;4.32;;;9.70;99.90;;;;;;4903319;29;20032;-89
2021/11/12 07:09:16;;;;;;;6.30;3.55;;;9.80;99.90;;;;;;4918702;29;20041;-93
2021/11/12 07:11:42;;;;;;;6.68;2.40;;;9.80;99.90;;;;;;4918113;29;20116;-94
2021/11/12 07:14:16;;;;;;;5.78;2.47;;;9.80;99.90;;;;;;4910634;29;20032;-89
2021/11/12 07:16:42;;;;;;;6.57;3.10;;;9.90;99.90;;;;;;4919460;29;20021;-88
2021/11/12 07:19:08;;;;;;;10.20;2.70;;;10.00;99.90;;;;;;4920408;29;20032;-89
2021/11/12 07:21:34;;;;;;;7.57;3.20;;;10.00;99.90;;;;;;4918937;29;20023;-94
2021/11/12 07:24:01;;;;;;;6.97;3.22;;;10.10;99.90;;;;;;4915833;29;20032;-92
2021/11/12 07:26:27;;;;;;;14.38;4.00;;;10.10;99.90;;;;;;4913749;29;20020;-95
2021/11/12 07:28:53;;;;;;;13.88;3.00;;;10.10;99.90;;;;;;4915275;29;20048;-94
2021/11/12 07:31:19;;;;;;;10.18;2.80;;;10.10;99.90;;;;;;4917663;29;20053;-93
2021/11/12 07:33:46;;;;;;;11.25;3.08;;;10.10;99.90;;;;;;4913487;29;20056;-91
2021/11/12 07:49:02;;;;;;;7.90;3.17;;;10.20;99.90;;;;;;4916139;29;20092;-93
2021/11/12 07:51:28;;;;;;;10.80;3.25;;;10.20;99.90;;;;;;4919460;29;20028;-93
2021/11/12 07:53:54;;;;;;;8.70;2.92;;;10.20;99.90;;;;;;4919352;29;20037;-88
2021/11/12 07:56:21;;;;;;;10.25;2.75;;;10.30;99.90;;;;;;4903273;29;20020;-88
2021/11/12 07:58:48;;;;;;;11.52;3.03;;;10.30;99.90;;;;;;4900123;29;20054;-95
2021/11/12 08:01:14;;;;;;;10.93;2.80;;;10.30;99.90;;;;;;4916549;29;20047;-93
2021/11/12 08:03:54;;;;;;;9.32;2.83;;;10.30;99.90;;;;;;4902724;29;20033;-93
2021/11/12 08:06:20;;;;;;;10.40;3.15;;;10.30;99.90;;;;;;4919212;29;20033;-95
2021/11/12 08:08:56;;;;;;;7.80;3.08;;;10.30;99.90;;;;;;4899323;29;20033;-93
2021/11/12 08:11:38;;;;;;;11.90;3.00;;;10.40;99.90;;;;;;4915294;29;20151;-93
2021/11/12 08:19:09;;;;;;;18.25;3.03;;;10.40;99.90;;;;;;4922156;29;20028;-93
2021/11/12 08:35:00;;;;;;;9.77;3.10;;;10.50;99.90;;;;;;4878482;29;20067;-93
2021/11/12 08:42:37;;;;;;;12.43;3.05;;;10.60;99.90;;;;;;4920262;29;20049;-94
2021/11/12 08:45:11;;;;;;;10.80;3.88;;;10.60;99.90;;;;;;4904072;29;20113;-96
2021/11/12 08:47:40;;;;;;;7.88;1.83;;;10.60;99.90;;;;;;4918964;29;20032;-95
2021/11/12 08:50:17;;;;;;;12.13;3.00;;;10.70;99.90;;;;;;4901561;29;20037;-95
2021/11/12 08:52:44;;;;;;;11.88;3.00;;;10.70;99.90;;;;;;4919884;29;20040;-93
2021/11/12 08:55:11;;;;;;;16.63;2.60;;;10.70;99.90;;;;;;4905801;29;20068;-94
2021/11/12 08:57:37;;;;;;;16.98;2.72;;;10.70;99.90;;;;;;4899775;29;20096;-94
2021/11/12 09:00:06;;;;;;;15.27;3.17;;;10.70;99.90;;;;;;4922643;29;20040;-89
2021/11/12 09:02:31;;;;;;;7.30;2.83;;;10.80;99.90;;;;;;4922005;29;20024;-90
2021/11/12 09:05:00;;;;;;;13.18;3.63;;;10.80;99.90;;;;;;4906828;29;20135;-94
2021/11/12 09:07:25;;;;;;;12.73;2.63;;;10.80;99.90;;;;;;4903062;29;20028;-94
2021/11/12 09:09:56;;;;;;;16.30;2.75;;;10.80;99.90;;;;;;4904066;29;20051;-92
2021/11/12 09:12:25;;;;;;;16.33;2.85;;;10.80;99.90;;;;;;4922058;29;20036;-90
2021/11/12 09:14:53;;;;;;;21.10;3.35;;;10.90;99.90;;;;;;4922390;29;20012;-88
2021/11/12 09:17:21;;;;;;;16.13;3.05;;;10.90;99.90;;;;;;4923532;29;20025;-92
2021/11/12 09:19:52;;;;;;;16.75;2.75;;;10.90;99.90;;;;;;4905451;29;20009;-95
2021/11/12 09:22:25;;;;;;;17.77;2.70;;;11.00;99.90;;;;;;4905205;29;20076;-95
2021/11/12 09:24:51;;;;;;;20.88;3.92;;;11.00;99.90;;;;;;4931617;29;20033;-93
2021/11/12 09:27:18;;;;;;;23.17;3.10;;;11.00;99.90;;;;;;4906835;29;20093;-95
2021/11/12 09:29:47;;;;;;;21.15;4.90;;;11.00;99.90;;;;;;4887670;29;20037;-93
2021/11/12 09:32:15;;;;;;;17.58;3.08;;;11.10;99.90;;;;;;4912999;29;20025;-94
2021/11/12 09:34:41;;;;;;;21.23;3.50;;;11.10;99.90;;;;;;4902940;29;20044;-93
2021/11/12 09:37:09;;;;;;;21.67;3.35;;;11.10;99.90;;;;;;4919651;29;20057;-94
2021/11/12 09:39:40;;;;;;;25.83;4.13;;;11.10;99.90;;;;;;4916197;29;20028;-94
2021/11/12 09:42:12;;;;;;;22.30;4.68;;;11.20;99.90;;;;;;4913277;29;20020;-89
2021/11/12 09:45:01;;;;;;;16.63;4.00;;;11.20;99.90;;;;;;4903283;29;20037;-94
2021/11/12 09:47:56;;;;;;;17.70;4.20;;;11.20;99.90;;;;;;4923299;29;20061;-91
2021/11/12 09:50:30;;;;;;;23.10;4.03;;;11.20;99.90;;;;;;4917744;29;20103;-96
2021/11/12 09:53:03;;;;;;;22.60;3.83;;;11.30;99.90;;;;;;4903361;29;20048;-95
2021/11/12 09:55:30;;;;;;;18.83;3.03;;;11.30;99.90;;;;;;4906531;29;20309;-95
2021/11/12 09:58:01;;;;;;;23.08;3.45;;;11.30;99.90;;;;;;4913907;29;20096;-93
2021/11/12 10:00:27;;;;;;;20.25;3.40;;;11.30;99.90;;;;;;4908317;29;20092;-95
2021/11/12 10:02:57;;;;;;;24.25;4.20;;;11.30;99.90;;;;;;4914849;29;20025;-94
2021/11/12 10:05:34;;;;;;;20.00;3.45;;;11.30;99.90;;;;;;4910387;29;20123;-94
2021/11/12 10:08:16;;;;;;;23.55;5.78;;;11.30;99.90;;;;;;4916567;29;20012;-90
2021/11/12 10:11:07;;;;;;;30.15;5.95;;;11.30;99.90;;;;;;4920755;29;20041;-89
2021/11/12 10:13:41;;;;;;;20.73;4.05;;;11.30;99.90;;;;;;4912735;29;20024;-93
2021/11/12 10:16:35;;;;;;;18.02;3.35;;;11.20;99.90;;;;;;4900203;29;20025;-91
2021/11/12 10:19:17;;;;;;;28.08;5.10;;;11.20;99.90;;;;;;4907739;29;20025;-90
2021/11/12 10:21:43;;;;;;;24.00;5.00;;;11.10;99.90;;;;;;4910743;29;20017;-96
2021/11/12 10:24:26;;;;;;;32.60;5.78;;;11.10;99.90;;;;;;4915496;29;21273;-95
2021/11/12 10:27:12;;;;;;;23.77;5.25;;;11.10;99.90;;;;;;4916509;29;20028;-94
2021/11/12 10:30:00;;;;;;;27.88;3.70;;;11.10;99.90;;;;;;4910713;29;20032;-95
2021/11/12 10:32:27;;;;;;;15.82;2.80;;;11.10;99.90;;;;;;4910097;29;20101;-95
2021/11/12 10:35:02;;;;;;;23.02;4.07;;;11.10;99.90;;;;;;4908326;29;20052;-95
2021/11/12 10:37:32;;;;;;;18.08;3.65;;;11.10;99.90;;;;;;4909248;29;20028;-96
2021/11/12 10:40:04;;;;;;;20.70;3.50;;;11.00;99.90;;;;;;4902630;29;20072;-96
2021/11/12 10:42:54;;;;;;;20.27;3.15;;;11.00;99.90;;;;;;4918058;29;20032;-96
2021/11/12 10:45:31;;;;;;;15.60;3.40;;;11.00;99.90;;;;;;4914872;29;20096;-96
2021/11/12 10:48:06;;;;;;;19.67;2.97;;;11.10;99.90;;;;;;4902403;29;20028;-95
2021/11/12 10:50:34;;;;;;;15.50;2.65;;;11.10;99.90;;;;;;4905217;29;20032;-96
2021/11/12 10:53:42;;;;;;;13.63;2.53;;;11.10;99.90;;;;;;4904188;29;20036;-96
2021/11/12 10:56:11;;;;;;;14.55;2.97;;;11.10;99.90;;;;;;4901642;29;20033;-96
2021/11/12 10:58:55;;;;;;;17.08;2.92;;;11.00;99.90;;;;;;4902561;29;20039;-94
2021/11/12 11:01:37;;;;;;;17.95;3.15;;;11.00;99.90;;;;;;4923754;29;20060;-95
2021/11/12 11:04:23;;;;;;;18.65;2.83;;;11.00;99.90;;;;;;4885542;29;20024;-92
2021/11/12 11:06:51;;;;;;;17.67;3.00;;;11.00;99.90;;;;;;4900629;29;20072;-96
2021/11/12 11:09:38;;;;;;;17.70;3.22;;;11.00;99.90;;;;;;4919598;29;20060;-95
2021/11/12 11:12:04;;;;;;;21.23;4.18;;;11.00;99.90;;;;;;4921944;29;20074;-95
2021/11/12 11:14:35;;;;;;;22.00;4.85;;;11.10;99.90;;;;;;4908564;29;20092;-91
2021/11/12 11:17:27;;;;;;;18.05;2.78;;;11.10;99.90;;;;;;4910564;29;20039;-95
2021/11/12 11:19:54;;;;;;;25.38;3.42;;;11.10;99.90;;;;;;4918904;29;20052;-90
2021/11/12 11:22:20;;;;;;;28.23;3.65;;;11.20;99.90;;;;;;4919747;29;20033;-95
2021/11/12 11:24:49;;;;;;;18.52;3.85;;;11.20;99.90;;;;;;4915452;29;20172;-93
2021/11/12 11:27:15;;;;;;;23.73;4.28;;;11.20;99.90;;;;;;4918769;29;20008;-93
2021/11/12 11:29:43;;;;;;;27.33;4.00;;;11.20;99.90;;;;;;4918750;29;20040;-94
2021/11/12 11:34:57;;;;;;;27.52;4.35;;;11.30;99.90;;;;;;4905952;29;20033;-94
2021/11/12 11:37:23;;;;;;;25.70;4.68;;;11.30;99.90;;;;;;4907606;29;20024;-94
2021/11/12 11:39:50;;;;;;;29.75;3.78;;;11.30;99.90;;;;;;4911627;29;20096;-95
2021/11/12 11:42:19;;;;;;;29.83;4.07;;;11.30;99.90;;;;;;4912700;29;20581;-96
2021/11/12 11:44:51;;;;;;;20.73;3.60;;;11.30;99.90;;;;;;4920006;29;20037;-93
2021/11/12 11:47:21;;;;;;;26.00;3.88;;;11.30;99.90;;;;;;4904537;29;20036;-94
2021/11/12 11:49:54;;;;;;;23.98;3.50;;;11.40;99.90;;;;;;4905100;29;20092;-92
2021/11/12 11:52:30;;;;;;;17.00;2.55;;;11.40;99.90;;;;;;4919795;29;20053;-94
2021/11/12 11:54:59;;;;;;;23.58;3.13;;;11.40;99.90;;;;;;4915369;29;20033;-96
2021/11/12 11:57:27;;;;;;;19.85;3.15;;;11.40;99.90;;;;;;4900676;29;20040;-94
2021/11/12 12:00:21;;;;;;;17.83;3.30;;;11.40;99.90;;;;;;4913413;29;20036;-95
2021/11/12 12:02:47;;;;;;;21.95;3.22;;;11.40;99.90;;;;;;4888574;29;20040;-95
2021/11/12 12:05:14;;;;;;;25.60;3.30;;;11.50;99.90;;;;;;4873423;29;20040;-96
2021/11/12 12:07:55;;;;;;;18.17;3.17;;;11.50;99.90;;;;;;4889834;29;20100;-95
2021/11/12 12:10:24;;;;;;;19.23;3.40;;;11.50;99.90;;;;;;4887584;29;20032;-96
2021/11/12 12:12:53;;;;;;;26.98;3.42;;;11.50;99.90;;;;;;4906378;29;20033;-93
2021/11/12 12:15:22;;;;;;;19.67;3.17;;;11.50;99.90;;;;;;4903395;29;20021;-94
2021/11/12 12:17:50;;;;;;;18.40;3.90;;;11.50;99.90;;;;;;4895889;29;20033;-96
2021/11/12 12:20:53;;;;;;;18.13;2.38;;;11.60;99.90;;;;;;4916727;29;20034;-95
2021/11/12 13:26:00;;;;;;;11.02;1.65;;;12.00;99.90;;;;;;4910831;29;20029;-94
2021/11/12 13:28:26;;;;;;;6.47;1.45;;;11.90;99.90;;;;;;4894764;29;20081;-94
2021/11/12 13:30:57;;;;;;;15.48;2.75;;;11.90;99.90;;;;;;4909984;29;20036;-90
2021/11/12 13:33:43;;;;;;;12.88;1.92;;;11.90;99.90;;;;;;4915937;29;20116;-88
2021/11/12 13:36:20;;;;;;;10.27;1.50;;;11.90;99.90;;;;;;4892624;29;20051;-91
2021/11/12 13:38:53;;;;;;;10.00;1.38;;;11.90;99.90;;;;;;4890247;29;20037;-93
2021/11/12 13:41:21;;;;;;;11.45;1.58;;;11.90;99.90;;;;;;4923639;29;20033;-90
2021/11/12 13:43:49;;;;;;;12.18;1.90;;;11.90;99.90;;;;;;4898312;29;20065;-95
2021/11/12 13:46:15;;;;;;;10.60;2.05;;;11.80;99.90;;;;;;4882087;29;20061;-92
2021/11/12 13:48:54;;;;;;;11.57;1.52;;;11.80;99.90;;;;;;4895256;29;20064;-92
2021/11/12 13:51:26;;;;;;;13.07;2.13;;;11.90;99.90;;;;;;4897014;29;20027;-95
2021/11/12 13:53:52;;;;;;;10.23;1.75;;;11.90;99.90;;;;;;4887307;29;20039;-93
2021/11/12 13:56:18;;;;;;;6.93;1.40;;;11.90;99.90;;;;;;4904117;29;20016;-92
2021/11/12 13:58:43;;;;;;;12.82;2.78;;;11.90;99.90;;;;;;4887867;29;20043;-91
2021/11/12 14:01:23;;;;;;;9.00;1.30;;;11.90;99.90;;;;;;4896864;29;20044;-94
2021/11/12 14:03:50;;;;;;;16.70;1.92;;;11.90;99.90;;;;;;4917417;29;20027;-94
2021/11/12 14:06:20;;;;;;;13.95;1.50;;;11.90;99.90;;;;;;4895544;29;20019;-96
2021/11/12 14:08:48;;;;;;;5.97;2.00;;;11.80;99.90;;;;;;4891499;29;20033;-96
2021/11/12 14:11:18;;;;;;;8.25;1.83;;;11.90;99.90;;;;;;4893958;29;20033;-95
2021/11/12 14:13:46;;;;;;;8.80;2.22;;;11.90;99.90;;;;;;4876268;29;20029;-94
2021/11/12 14:22:00;;;;;;;8.85;1.55;;;11.90;99.90;;;;;;4879152;29;20036;-92
2021/11/12 14:40:27;;;;;;;4.68;1.33;;;11.90;99.90;;;;;;4900077;29;20029;-94
2021/11/12 14:46:18;;;;;;;9.35;1.73;;;11.90;99.90;;;;;;4904103;29;20032;-95
2021/11/12 14:48:55;;;;;;;11.35;2.78;;;11.90;99.90;;;;;;4904040;29;20041;-95
2021/11/12 14:51:24;;;;;;;13.45;2.75;;;11.90;99.90;;;;;;4902625;29;20036;-94
2021/11/12 14:53:54;;;;;;;19.75;4.22;;;11.80;99.90;;;;;;4900850;29;20039;-95
2021/11/12 14:56:27;;;;;;;12.63;3.60;;;11.90;99.90;;;;;;4901077;29;20043;-96
2021/11/12 14:59:08;;;;;;;7.82;2.38;;;11.80;99.90;;;;;;4904448;29;20032;-91
2021/11/12 15:01:35;;;;;;;11.52;2.15;;;11.80;99.90;;;;;;4903923;29;20029;-94
2021/11/12 15:04:01;;;;;;;8.60;1.45;;;11.80;99.90;;;;;;4905256;29;20025;-93
2021/11/12 15:06:28;;;;;;;3.80;1.02;;;11.80;99.90;;;;;;4889791;29;20076;-95
2021/11/12 15:09:16;;;;;;;3.90;0.85;;;11.70;99.90;;;;;;4927166;29;20025;-96
2021/11/12 15:11:46;;;;;;;4.18;1.08;;;11.70;99.90;;;;;;4907809;29;20021;-91
2021/11/12 15:14:16;;;;;;;6.65;1.50;;;11.70;99.90;;;;;;4911269;29;20064;-92
2021/11/12 15:16:42;;;;;;;6.35;1.20;;;11.70;99.90;;;;;;4893212;29;20032;-89
2021/11/12 15:19:15;;;;;;;6.38;1.15;;;11.60;99.90;;;;;;4897003;29;20185;-87
2021/11/12 15:22:31;;;;;;;6.82;1.60;;;11.60;99.90;;;;;;4931859;29;20016;-90
2021/11/12 15:32:14;;;;;;;4.65;1.20;;;11.60;99.90;;;;;;4909656;29;20061;-89
2021/11/12 15:34:45;;;;;;;6.57;1.20;;;11.60;99.90;;;;;;4913941;29;20037;-91
2021/11/12 15:37:17;;;;;;;7.78;1.42;;;11.60;99.90;;;;;;4910061;29;20013;-92
2021/11/12 15:40:04;;;;;;;5.43;1.52;;;11.60;99.90;;;;;;4907874;29;20128;-91
2021/11/12 15:45:51;;;;;;;5.22;1.00;;;11.50;99.90;;;;;;4905883;29;20013;-93
2021/11/12 15:48:07;;;;;;;7.30;1.48;;;11.50;99.90;;;;;;4896109;29;20063;-93
2021/11/12 15:50:49;;;;;;;2.13;0.57;;;11.50;99.90;;;;;;4890039;29;20119;-91
2021/11/12 15:53:39;;;;;;;5.63;0.98;;;11.50;99.90;;;;;;4931409;29;20032;-89
2021/11/12 16:06:45;;;;;;;9.52;1.20;;;11.50;99.90;;;;;;4912411;29;20033;-90
2021/11/12 16:17:19;;;;;;;3.78;0.90;;;11.50;99.90;;;;;;5023743;23;20051;-90
2021/11/12 16:27:18;;;;;;;3.70;0.73;;;11.40;99.90;;;;;;4902446;29;20025;-91
2021/11/12 16:29:46;;;;;;;8.73;1.77;;;11.40;99.90;;;;;;4888900;29;20028;-90
2021/11/12 16:32:24;;;;;;;7.00;1.48;;;11.40;99.90;;;;;;4902891;29;20045;-89
2021/11/12 16:34:55;;;;;;;8.43;1.75;;;11.40;99.90;;;;;;4883159;29;20113;-90
2021/11/12 16:37:23;;;;;;;10.68;2.55;;;11.30;99.90;;;;;;4888938;29;20093;-91
2021/11/12 16:39:58;;;;;;;10.73;2.63;;;11.30;99.90;;;;;;4889999;29;20025;-91
2021/11/12 16:45:02;;;;;;;8.75;2.30;;;11.30;99.90;;;;;;4904420;29;20033;-91
2021/11/12 17:22:33;;;;;;;4.90;1.30;;;11.10;99.90;;;;;;4855273;29;20110;-95
2021/11/12 17:46:45;;;;;;;9.88;2.97;;;11.10;99.90;;;;;;4860445;29;20111;-92
2021/11/12 17:52:05;;;;;;;7.85;3.22;;;11.10;99.90;;;;;;4914136;29;20025;-93
2021/11/12 18:11:05;;;;;;;6.32;1.90;;;11.00;99.90;;;;;;4918436;29;20009;-94
2021/11/12 21:46:54;;;;;;;8.63;1.17;;;10.30;99.90;;;;;;4878651;29;20026;-96
2021/11/12 21:49:20;;;;;;;8.68;1.50;;;10.20;99.90;;;;;;4891351;29;20273;-94
2021/11/12 21:51:46;;;;;;;11.20;1.25;;;10.30;99.90;;;;;;4878959;29;20043;-93
2021/11/12 21:54:13;;;;;;;5.82;1.63;;;10.20;99.90;;;;;;4885293;29;20040;-92
2021/11/12 21:56:39;;;;;;;10.20;1.10;;;10.20;99.90;;;;;;4897006;29;20030;-95
2021/11/12 21:59:06;;;;;;;7.15;1.30;;;10.20;99.90;;;;;;4868801;29;20048;-90
2021/11/12 22:01:33;;;;;;;5.15;1.13;;;10.20;99.90;;;;;;4897917;29;20040;-94
2021/11/12 22:03:59;;;;;;;7.28;0.98;;;10.30;99.90;;;;;;4886097;29;20052;-95
2021/11/12 22:06:25;;;;;;;10.32;1.13;;;10.20;99.90;;;;;;4890208;29;20053;-92
2021/11/12 22:08:50;;;;;;;10.57;1.27;;;10.20;99.90;;;;;;4877375;29;20025;-95
2021/11/12 22:11:25;;;;;;;7.13;1.27;;;10.20;99.90;;;;;;4866579;29;20040;-94
2021/11/12 22:13:50;;;;;;;10.43;1.55;;;10.20;99.90;;;;;;4873346;29;20036;-95
2021/11/12 22:16:21;;;;;;;4.57;1.17;;;10.20;99.90;;;;;;4879492;29;20029;-95
2021/11/12 22:18:47;;;;;;;6.63;1.00;;;10.20;99.90;;;;;;4886445;29;20032;-96
2021/11/12 22:21:14;;;;;;;3.97;0.70;;;10.10;99.90;;;;;;4901315;29;20029;-94
2021/11/12 22:23:40;;;;;;;4.18;1.42;;;10.20;99.90;;;;;;4904922;29;20021;-92
2021/11/12 22:26:46;;;;;;;3.72;1.02;;;10.10;99.90;;;;;;4897374;29;20024;-89
2021/11/12 22:29:29;;;;;;;6.95;0.80;;;10.10;99.90;;;;;;4907453;29;20024;-96
2021/11/12 22:32:04;;;;;;;7.25;1.20;;;10.20;99.90;;;;;;4911938;29;20040;-94
2021/11/12 22:34:47;;;;;;;3.95;0.65;;;10.20;99.90;;;;;;4922086;29;20028;-95
2021/11/12 22:37:12;;;;;;;6.07;1.00;;;10.20;99.90;;;;;;4893137;29;20032;-92
2021/11/12 22:39:41;;;;;;;4.68;1.90;;;10.20;99.90;;;;;;4892602;29;20029;-96
2021/11/12 22:42:07;;;;;;;9.30;1.42;;;10.20;99.90;;;;;;4897008;29;20032;-89
2021/11/12 22:44:34;;;;;;;3.58;1.30;;;10.20;99.90;;;;;;4896223;29;20035;-91
2021/11/12 22:47:00;;;;;;;4.85;1.85;;;10.20;99.90;;;;;;4909465;29;20052;-94
2021/11/12 22:49:26;;;;;;;5.43;1.63;;;10.20;99.90;;;;;;4892069;29;20024;-89
2021/11/12 22:51:52;;;;;;;4.03;1.23;;;10.20;99.90;;;;;;4907334;29;20032;-95
2021/11/12 22:54:17;;;;;;;6.95;0.90;;;10.20;99.90;;;;;;4909426;29;20033;-93
2021/11/12 22:56:43;;;;;;;5.07;1.20;;;10.20;99.90;;;;;;4901287;29;20088;-88
2021/11/12 22:59:08;;;;;;;3.97;1.10;;;10.20;99.90;;;;;;4892326;29;20062;-90
2021/11/12 23:01:34;;;;;;;8.25;1.10;;;10.20;99.90;;;;;;4897170;29;20037;-92
2021/11/12 23:04:00;;;;;;;4.68;0.90;;;10.20;99.90;;;;;;4899026;29;20029;-90
2021/11/12 23:06:29;;;;;;;7.53;1.80;;;10.20;99.90;;;;;;4887615;29;20206;-94
2021/11/12 23:08:54;;;;;;;5.22;0.98;;;10.20;99.90;;;;;;4906227;29;20025;-95
2021/11/12 23:11:20;;;;;;;7.07;1.10;;;10.20;99.90;;;;;;4898081;29;20072;-96
2021/11/12 23:13:48;;;;;;;7.13;1.30;;;10.20;99.90;;;;;;4889211;29;20131;-94
2021/11/12 23:16:15;;;;;;;3.80;0.82;;;10.20;99.90;;;;;;4901965;29;20031;-94
2021/11/12 23:18:41;;;;;;;7.82;2.28;;;10.20;99.90;;;;;;4903031;29;20044;-94
2021/11/12 23:21:07;;;;;;;3.38;0.88;;;10.20;99.90;;;;;;4886948;29;20084;-92
2021/11/12 23:23:35;;;;;;;3.30;0.70;;;10.20;99.90;;;;;;4888611;29;20006;-96
2021/11/12 23:26:01;;;;;;;1.98;0.80;;;10.20;99.90;;;;;;4892738;29;20020;-94
2021/11/12 23:28:30;;;;;;;6.13;1.05;;;10.20;99.90;;;;;;4889099;29;20024;-94
2021/11/12 23:30:57;;;;;;;9.20;1.00;;;10.20;99.90;;;;;;4916635;29;20061;-93
2021/11/12 23:33:23;;;;;;;6.55;1.33;;;10.20;99.90;;;;;;4893174;29;20048;-96
2021/11/12 23:35:49;;;;;;;8.02;1.52;;;10.30;99.90;;;;;;4906639;29;20097;-95